Time;durP1;ratioP1;P1;durP2;ratioP2;P2;SDS_P1;SDS_P2;PMS_P1;PMS_P2;Temp;Humidity;BMP_temperature;BMP_pressure;BME280_temperature;BME280_humidity;BME280_pressure;Samples;Min_cycle;Max_cycle;Signal;HPM_P1;HPM_P2
2022/01/26 00:07:50;;;;;;;83.75;31.13;;;;;;;2.61;100.00;102230.81;4972060;28;20050;-73
2022/01/26 00:10:18;;;;;;;90.82;33.65;;;;;;;2.63;100.00;102223.34;4959478;28;20059;-73
2022/01/26 00:12:46;;;;;;;83.18;31.45;;;;;;;2.72;100.00;102218.69;4970279;28;20043;-73
2022/01/26 00:15:14;;;;;;;84.78;30.63;;;;;;;2.72;100.00;102224.09;4975676;28;20047;-73
2022/01/26 00:17:42;;;;;;;82.07;31.80;;;;;;;2.59;100.00;102222.03;4973595;28;20058;-72
2022/01/26 00:20:26;;;;;;;79.63;31.83;;;;;;;2.55;100.00;102213.47;4976111;28;20051;-72
2022/01/26 00:23:02;;;;;;;86.85;32.17;;;;;;;2.53;100.00;102220.09;4975361;28;20051;-72
2022/01/26 00:38:40;;;;;;;71.00;27.50;;;;;;;2.56;100.00;102198.09;4939216;28;20380;-72
2022/01/26 00:41:13;;;;;;;80.25;29.33;;;;;;;2.53;100.00;102193.91;4951743;28;20047;-72
2022/01/26 00:43:50;;;;;;;72.88;29.30;;;;;;;2.50;100.00;102196.97;4954054;28;20394;-72
2022/01/26 00:46:19;;;;;;;77.07;29.48;;;;;;;2.50;100.00;102199.66;4967878;28;20051;-72
2022/01/26 00:48:49;;;;;;;77.82;28.92;;;;;;;2.47;100.00;102191.94;4972042;28;20043;-72
2022/01/26 00:51:20;;;;;;;67.00;29.42;;;;;;;2.52;100.00;102184.13;4975418;28;20043;-72
2022/01/26 00:54:00;;;;;;;78.45;27.85;;;;;;;2.49;100.00;102186.38;4974674;28;20054;-72
2022/01/26 00:56:29;;;;;;;75.88;29.10;;;;;;;2.40;100.00;102183.72;4975675;28;20375;-72
2022/01/26 00:58:58;;;;;;;67.72;27.35;;;;;;;2.39;100.00;102182.06;4975042;28;20046;-71
2022/01/26 01:01:26;;;;;;;77.97;29.42;;;;;;;2.36;100.00;102182.44;4974953;28;20059;-71
2022/01/26 01:03:54;;;;;;;78.93;31.23;;;;;;;2.41;100.00;102181.88;4972799;28;20054;-71
2022/01/26 01:06:28;;;;;;;75.15;29.15;;;;;;;2.34;100.00;102181.78;4975510;28;20050;-71
2022/01/26 01:08:57;;;;;;;;;;;;;;;2.36;100.00;102182.44;4975243;28;20051;-71
2022/01/26 01:11:26;;;;;;;85.88;30.30;;;;;;;2.38;100.00;102169.59;4974137;28;19926;-71
2022/01/26 01:13:55;;;;;;;77.32;30.52;;;;;;;2.30;100.00;102179.63;4974701;28;20383;-71
2022/01/26 01:16:24;;;;;;;82.28;28.75;;;;;;;2.33;100.00;102174.69;4968258;28;20055;-71
2022/01/26 01:19:04;;;;;;;75.45;28.70;;;;;;;2.25;100.00;102178.31;4974888;28;20070;-71
2022/01/26 01:25:43;;;;;;;73.65;28.23;;;;;;;2.15;100.00;102170.50;4974562;28;20486;-72
2022/01/26 01:30:56;;;;;;;71.63;30.17;;;;;;;2.22;100.00;102169.75;4974884;28;20054;-72
2022/01/26 01:33:04;;;;;;;79.60;29.45;;;;;;;2.31;100.00;102178.59;4963209;28;20058;-72
2022/01/26 01:35:38;;;;;;;77.07;29.02;;;;;;;2.29;100.00;102173.38;4974874;28;20038;-71
2022/01/26 01:38:13;;;;;;;85.53;30.83;;;;;;;2.24;100.00;102184.75;4973277;28;20058;-71
2022/01/26 01:40:43;;;;;;;79.07;30.80;;;;;;;2.38;100.00;102177.69;4973831;28;20054;-71
2022/01/26 01:43:12;;;;;;;82.18;29.92;;;;;;;2.33;100.00;102181.94;4974593;28;20047;-71
2022/01/26 01:45:45;;;;;;;81.50;30.83;;;;;;;2.32;100.00;102175.72;4973911;28;20409;-71
2022/01/26 01:48:18;;;;;;;75.45;28.67;;;;;;;2.23;100.00;102174.97;4973255;28;20050;-72
2022/01/26 01:50:48;;;;;;;74.80;29.60;;;;;;;2.24;100.00;102175.78;4973960;28;20057;-71
2022/01/26 01:53:18;;;;;;;79.65;28.83;;;;;;;2.26;100.00;102179.16;4974329;28;20478;-72
2022/01/26 01:55:50;;;;;;;76.30;28.25;;;;;;;2.21;100.00;102179.72;4973414;28;20050;-72
2022/01/26 01:58:18;;;;;;;73.07;28.08;;;;;;;2.27;100.00;102173.59;4966816;28;20050;-71
2022/01/26 02:00:47;;;;;;;77.35;30.27;;;;;;;2.23;100.00;102174.13;4973608;28;20398;-71
2022/01/26 02:03:15;;;;;;;78.07;29.95;;;;;;;2.30;100.00;102174.22;4974365;28;20058;-72
2022/01/26 02:05:43;;;;;;;84.53;31.73;;;;;;;2.25;100.00;102172.91;4962185;28;20082;-72
2022/01/26 02:08:11;;;;;;;78.70;31.17;;;;;;;2.18;100.00;102173.84;4963085;28;20055;-72
2022/01/26 02:10:39;;;;;;;83.07;32.15;;;;;;;2.21;100.00;102176.19;4971133;28;20056;-72
2022/01/26 02:13:18;;;;;;;77.55;28.50;;;;;;;2.10;100.00;102181.00;4973350;28;20058;-72
2022/01/26 02:15:55;;;;;;;81.18;30.00;;;;;;;2.06;100.00;102177.00;4973175;28;20058;-72
2022/01/26 02:19:24;;;;;;;75.90;29.98;;;;;;;1.99;100.00;102174.19;4973263;28;20053;-72
2022/01/26 02:21:39;;;;;;;83.80;30.50;;;;;;;2.09;100.00;102170.38;4960438;28;20053;-72
2022/01/26 03:02:11;;;;;;;84.70;30.23;;;;;;;1.92;100.00;102140.84;4973048;28;20050;-72
2022/01/26 03:04:46;;;;;;;78.10;31.20;;;;;;;2.06;100.00;102150.00;4947778;28;20050;-72
2022/01/26 03:07:24;;;;;;;87.40;30.98;;;;;;;2.05;100.00;102142.91;4972802;28;20054;-72
2022/01/26 03:10:07;;;;;;;77.20;28.83;;;;;;;1.98;100.00;102136.56;4972337;28;20050;-72
2022/01/26 03:12:45;;;;;;;92.22;31.63;;;;;;;1.83;100.00;102137.38;4973064;28;20043;-72
2022/01/26 03:18:30;;;;;;;84.13;30.13;;;;;;;2.17;100.00;102139.75;4930080;28;20055;-72
2022/01/26 03:21:01;;;;;;;79.13;31.80;;;;;;;2.08;100.00;102134.44;4971749;28;20050;-72
2022/01/26 03:32:32;;;;;;;92.65;32.05;;;;;;;1.91;100.00;102138.31;4972197;28;20059;-72
2022/01/26 03:34:38;;;;;;;94.43;32.53;;;;;;;1.88;100.00;102132.28;4971922;28;20054;-72
2022/01/26 03:37:08;;;;;;;84.57;30.60;;;;;;;1.87;100.00;102127.88;4972192;28;20062;-72
2022/01/26 03:39:42;;;;;;;81.85;30.67;;;;;;;1.85;100.00;102123.69;4972843;28;20051;-72
2022/01/26 03:42:15;;;;;;;97.05;31.67;;;;;;;1.87;100.00;102127.06;4972145;28;20409;-72
2022/01/26 03:44:43;;;;;;;83.60;30.45;;;;;;;1.85;100.00;102124.53;4964721;28;20044;-72
2022/01/26 03:47:12;;;;;;;83.05;30.35;;;;;;;1.85;100.00;102124.53;4947282;28;20051;-72
2022/01/26 03:49:41;;;;;;;80.07;30.52;;;;;;;1.85;100.00;102119.13;4968219;28;20062;-72
2022/01/26 03:52:10;;;;;;;76.43;29.20;;;;;;;1.93;100.00;102126.31;4949407;28;20421;-72
2022/01/26 03:54:38;;;;;;;81.93;30.35;;;;;;;1.90;100.00;102125.84;4975986;28;20054;-72
2022/01/26 03:57:06;;;;;;;84.57;30.92;;;;;;;1.87;100.00;102122.47;4975870;28;20417;-72
2022/01/26 03:59:34;;;;;;;78.80;32.72;;;;;;;1.95;100.00;102123.44;4976560;28;20486;-72
2022/01/26 04:02:03;;;;;;;83.68;31.73;;;;;;;1.86;100.00;102123.50;4976471;28;20058;-72
2022/01/26 04:04:37;;;;;;;83.75;32.40;;;;;;;1.79;100.00;102127.09;4976515;28;20041;-72
2022/01/26 04:07:05;;;;;;;79.18;31.60;;;;;;;1.93;100.00;102130.88;4975469;28;20054;-72
2022/01/26 04:09:33;;;;;;;92.32;34.42;;;;;;;1.93;100.00;102122.78;4975257;28;20050;-72
2022/01/26 04:12:01;;;;;;;93.13;31.30;;;;;;;1.93;100.00;102125.47;4975025;28;20057;-72
2022/01/26 04:14:32;;;;;;;86.68;32.20;;;;;;;1.98;100.00;102117.66;4975711;28;20398;-72
2022/01/26 04:17:00;;;;;;;94.00;32.58;;;;;;;1.85;100.00;102119.13;4975621;28;20275;-72
2022/01/26 04:19:31;;;;;;;91.18;33.08;;;;;;;1.93;100.00;102120.06;4975447;28;20050;-72
2022/01/26 04:24:35;;;;;;;89.25;32.88;;;;;;;1.73;100.00;102116.06;4975423;28;20401;-72
2022/01/26 04:27:13;;;;;;;95.32;34.50;;;;;;;1.67;100.00;102119.44;4976187;28;20043;-72
2022/01/26 04:29:41;;;;;;;93.15;33.22;;;;;;;1.73;100.00;102113.34;4976008;28;20042;-72
2022/01/26 04:32:12;;;;;;;98.95;34.25;;;;;;;1.79;100.00;102111.75;4975490;28;20394;-72
2022/01/26 04:34:41;;;;;;;98.93;34.05;;;;;;;1.79;100.00;102119.00;4974852;28;20414;-72
2022/01/26 04:39:49;;;;;;;96.53;35.75;;;;;;;1.78;100.00;102115.50;4975132;28;20055;-72
2022/01/26 04:42:26;;;;;;;105.95;33.80;;;;;;;1.85;100.00;102116.44;4974908;28;20058;-72
2022/01/26 04:45:02;;;;;;;94.88;31.83;;;;;;;1.90;100.00;102112.34;4975332;28;20043;-72
2022/01/26 04:47:30;;;;;;;96.15;33.38;;;;;;;1.65;100.00;102109.88;4975130;28;20077;-72
2022/01/26 04:49:58;;;;;;;94.40;32.10;;;;;;;1.73;100.00;102113.34;4975526;28;20402;-72
2022/01/26 04:52:26;;;;;;;107.38;35.30;;;;;;;1.81;100.00;102108.88;4974465;28;20067;-72
2022/01/26 04:54:54;;;;;;;101.85;35.00;;;;;;;1.81;100.00;102107.00;4973850;28;20055;-72
2022/01/26 04:57:22;;;;;;;111.53;34.33;;;;;;;1.76;100.00;102112.13;4975657;28;20058;-72
2022/01/26 04:59:50;;;;;;;108.97;33.67;;;;;;;1.74;100.00;102106.06;4974889;28;20058;-72
2022/01/26 05:02:18;;;;;;;100.28;35.20;;;;;;;1.77;100.00;102110.28;4975232;28;20049;-72
2022/01/26 05:04:46;;;;;;;99.80;34.08;;;;;;;1.77;100.00;102111.13;4974824;28;20054;-72
2022/01/26 05:07:14;;;;;;;103.85;36.28;;;;;;;1.72;100.00;102108.94;4952452;28;20051;-72
2022/01/26 05:09:42;;;;;;;102.32;33.83;;;;;;;1.66;100.00;102114.25;4955113;29;20498;-72
2022/01/26 05:12:12;;;;;;;103.70;34.05;;;;;;;1.77;100.00;102111.13;4954961;29;20384;-72
2022/01/26 05:14:43;;;;;;;110.43;36.58;;;;;;;1.77;100.00;102115.66;4950676;29;20055;-72
2022/01/26 05:17:12;;;;;;;101.20;33.53;;;;;;;1.67;100.00;102102.44;4954928;29;20078;-72
2022/01/26 05:19:41;;;;;;;97.20;35.45;;;;;;;1.73;100.00;102109.78;4955027;29;20050;-72
2022/01/26 05:22:09;;;;;;;102.93;35.30;;;;;;;1.76;100.00;102111.28;4943948;29;20058;-72
2022/01/26 05:24:37;;;;;;;111.88;34.10;;;;;;;1.80;100.00;102118.00;4948510;29;20039;-72
2022/01/26 05:27:05;;;;;;;103.82;34.55;;;;;;;1.82;100.00;102114.13;4953570;29;20070;-72
2022/01/26 05:29:33;;;;;;;100.97;34.20;;;;;;;1.85;100.00;102110.19;4954747;29;20486;-72
2022/01/26 05:32:01;;;;;;;102.15;35.38;;;;;;;1.75;100.00;102110.44;4949862;29;20054;-72
2022/01/26 05:34:29;;;;;;;93.50;33.22;;;;;;;1.75;100.00;102110.44;4948481;29;20044;-72
2022/01/26 05:36:57;;;;;;;106.57;36.60;;;;;;;1.80;100.00;102105.34;4955388;29;20043;-73
2022/01/26 05:39:25;;;;;;;103.15;33.40;;;;;;;1.88;100.00;102113.38;4953075;29;20043;-73
2022/01/26 05:41:52;;;;;;;112.50;35.03;;;;;;;1.82;100.00;102108.72;4947507;29;20055;-73
2022/01/26 05:44:20;;;;;;;114.15;35.40;;;;;;;1.78;100.00;102102.00;4953244;29;20054;-72
2022/01/26 05:46:50;;;;;;;115.70;36.03;;;;;;;1.80;100.00;102108.03;4941619;28;20051;-73
2022/01/26 05:49:18;;;;;;;102.25;36.45;;;;;;;1.90;100.00;102112.34;4945372;29;20490;-73
2022/01/26 05:51:46;;;;;;;109.90;36.72;;;;;;;1.86;100.00;102104.59;4952539;29;20051;-73
2022/01/26 05:54:15;;;;;;;117.13;38.00;;;;;;;2.01;100.00;102101.09;4954078;29;20058;-73
2022/01/26 05:56:47;;;;;;;112.10;35.95;;;;;;;1.97;100.00;102111.44;4954149;29;20047;-72
2022/01/26 05:59:19;;;;;;;113.05;37.88;;;;;;;1.84;100.00;102116.59;4953857;29;20074;-73
2022/01/26 06:01:48;;;;;;;115.68;35.95;;;;;;;1.88;100.00;102113.38;4945214;28;20090;-72
2022/01/26 06:04:17;;;;;;;119.45;38.25;;;;;;;1.83;100.00;102109.53;4937382;29;20035;-72
2022/01/26 06:06:45;;;;;;;118.68;38.22;;;;;;;1.84;100.00;102117.47;4939000;28;20399;-72
2022/01/26 06:09:13;;;;;;;107.28;35.85;;;;;;;1.85;100.00;102119.13;4940889;29;20062;-72
2022/01/26 06:11:41;;;;;;;122.00;37.05;;;;;;;1.77;100.00;102119.22;4936085;29;20059;-73
2022/01/26 06:14:12;;;;;;;112.10;34.80;;;;;;;1.71;100.00;102117.25;4944382;29;20042;-73
2022/01/26 06:16:43;;;;;;;129.43;38.20;;;;;;;1.65;100.00;102115.28;4938660;29;20047;-73
2022/01/26 06:19:11;;;;;;;109.88;36.10;;;;;;;1.73;100.00;102120.59;4936817;29;20044;-73
2022/01/26 06:21:42;;;;;;;112.63;37.88;;;;;;;1.74;100.00;102116.88;4953212;29;20047;-73
2022/01/26 06:24:10;;;;;;;108.60;36.65;;;;;;;2.11;100.00;102125.94;4945757;29;20058;-73
2022/01/26 06:26:40;;;;;;;125.90;38.53;;;;;;;2.14;100.00;102120.19;4938608;28;20047;-72
2022/01/26 06:29:08;;;;;;;101.80;34.90;;;;;;;2.10;100.00;102123.47;4945238;29;20047;-73
2022/01/26 06:31:40;;;;;;;112.35;38.33;;;;;;;1.99;100.00;102125.59;4953437;29;20054;-73
2022/01/26 06:34:11;;;;;;;97.63;34.97;;;;;;;1.96;100.00;102123.22;4942925;29;20102;-71
2022/01/26 06:36:44;;;;;;;123.78;38.40;;;;;;;1.95;100.00;102123.44;4939104;29;20483;-72
2022/01/26 06:39:13;;;;;;;112.90;38.50;;;;;;;1.96;100.00;102112.44;4933806;29;20047;-72
2022/01/26 06:41:52;;;;;;;104.68;35.88;;;;;;;1.97;100.00;102122.25;4934613;29;20062;-71
2022/01/26 06:44:27;;;;;;;114.20;38.45;;;;;;;2.03;100.00;102126.06;4946353;29;20723;-71
2022/01/26 06:47:03;;;;;;;109.43;36.78;;;;;;;1.97;100.00;102119.53;4947302;29;21592;-75
2022/01/26 06:49:33;;;;;;;118.53;36.30;;;;;;;1.94;100.00;102127.13;4940543;29;20060;-71
2022/01/26 06:52:01;;;;;;;109.75;35.63;;;;;;;1.95;100.00;102126.13;4936612;29;20454;-71
2022/01/26 06:54:30;;;;;;;109.40;35.25;;;;;;;1.98;100.00;102123.06;4921126;29;20060;-71
2022/01/26 06:56:58;;;;;;;114.25;36.92;;;;;;;1.97;100.00;102126.78;4934919;29;20078;-71
2022/01/26 06:59:27;;;;;;;101.63;36.50;;;;;;;2.00;100.00;102131.81;4937244;29;20688;-71
2022/01/26 07:01:55;;;;;;;119.78;38.17;;;;;;;2.06;100.00;102130.25;4938524;28;20063;-71
2022/01/26 07:04:23;;;;;;;99.82;35.22;;;;;;;2.12;100.00;102143.00;4937969;28;20387;-71
2022/01/26 07:06:51;;;;;;;112.63;38.15;;;;;;;2.12;100.00;102146.56;4934756;29;20043;-71
2022/01/26 07:09:19;;;;;;;106.35;38.25;;;;;;;2.05;100.00;102139.38;4933856;29;20032;-71
2022/01/26 07:11:48;;;;;;;113.38;35.88;;;;;;;2.06;100.00;102141.91;4933656;29;20048;-71
2022/01/26 07:19:46;;;;;;;104.70;38.53;;;;;;;2.07;100.00;102145.41;4935867;29;20051;-71
2022/01/26 07:22:37;;;;;;;100.32;35.00;;;;;;;2.19;100.00;102145.81;4951979;28;20055;-71
2022/01/26 07:25:05;;;;;;;114.95;41.28;;;;;;;2.15;100.00;102142.63;4940225;29;20048;-71
2022/01/26 07:27:33;;;;;;;112.28;40.25;;;;;;;2.03;100.00;102144.94;4939902;29;20052;-71
2022/01/26 07:30:01;;;;;;;159.43;53.60;;;;;;;2.15;100.00;102143.47;4946177;29;20054;-71
2022/01/26 07:32:30;;;;;;;140.45;45.00;;;;;;;2.10;100.00;102145.06;4941522;29;20051;-71
2022/01/26 07:34:58;;;;;;;133.05;42.60;;;;;;;2.19;100.00;102145.81;4941121;29;20043;-71
2022/01/26 07:37:26;;;;;;;145.27;49.30;;;;;;;2.18;100.00;102150.38;4941938;29;20043;-72
2022/01/26 07:40:06;;;;;;;139.05;44.63;;;;;;;2.20;100.00;102147.50;4946382;29;20517;-72
2022/01/26 07:42:35;;;;;;;104.68;38.42;;;;;;;2.27;100.00;102148.44;4943479;29;20055;-72
2022/01/26 07:45:09;;;;;;;125.57;41.72;;;;;;;2.36;100.00;102149.19;4940453;29;20051;-72
2022/01/26 07:47:38;;;;;;;101.63;35.42;;;;;;;2.29;100.00;102151.78;4939482;29;20062;-71
2022/01/26 07:50:11;;;;;;;105.82;42.05;;;;;;;2.26;100.00;102152.97;4946796;29;20055;-72
2022/01/26 07:52:41;;;;;;;101.93;39.30;;;;;;;2.26;100.00;102162.97;4943677;29;20074;-71
2022/01/26 07:55:14;;;;;;;99.88;37.85;;;;;;;2.33;100.00;102163.91;4940736;29;20059;-70
2022/01/26 07:57:44;;;;;;;119.10;39.65;;;;;;;2.45;100.00;102160.72;4941829;29;20047;-70
2022/01/26 08:00:13;;;;;;;100.15;38.50;;;;;;;2.33;100.00;102163.91;4939005;29;20137;-70
2022/01/26 08:02:42;;;;;;;122.45;40.30;;;;;;;2.29;100.00;102162.56;4943577;28;20056;-70
2022/01/26 08:05:12;;;;;;;93.68;35.20;;;;;;;2.31;100.00;102160.53;4939692;29;20056;-70
2022/01/26 08:07:40;;;;;;;100.25;38.60;;;;;;;2.27;100.00;102161.94;4944326;29;20048;-70
2022/01/26 08:10:09;;;;;;;102.53;38.10;;;;;;;2.24;100.00;102167.69;4930736;29;20047;-71
2022/01/26 08:12:39;;;;;;;95.22;37.08;;;;;;;2.38;100.00;102161.47;4939012;29;20067;-70
2022/01/26 08:15:26;;;;;;;105.68;35.58;;;;;;;2.39;100.00;102163.16;4945366;29;20052;-70
2022/01/26 08:17:55;;;;;;;90.47;33.80;;;;;;;2.52;100.00;102154.41;4942474;29;20062;-70
2022/01/26 08:20:23;;;;;;;95.50;36.45;;;;;;;2.54;100.00;102159.63;4940248;28;20152;-71
2022/01/26 08:22:53;;;;;;;95.72;36.65;;;;;;;2.53;100.00;102144.41;4940542;29;20063;-71
2022/01/26 08:25:22;;;;;;;93.22;37.20;;;;;;;2.66;100.00;102155.41;4938618;29;20055;-71
2022/01/26 08:27:58;;;;;;;97.30;35.35;;;;;;;2.71;100.00;102151.28;4938969;29;20380;-71
2022/01/26 08:30:28;;;;;;;112.78;38.05;;;;;;;2.71;100.00;102159.41;4943407;28;20044;-72
2022/01/26 08:32:56;;;;;;;98.90;36.72;;;;;;;2.85;100.00;102152.31;4951440;29;20049;-72
2022/01/26 08:35:24;;;;;;;96.50;36.38;;;;;;;2.95;100.00;102150.97;4974791;28;20050;-72
2022/01/26 08:37:52;;;;;;;82.05;33.40;;;;;;;3.01;100.00;102151.25;4953421;28;20382;-71
2022/01/26 08:40:20;;;;;;;96.20;36.53;;;;;;;3.22;100.00;102150.44;4938090;29;20051;-70
2022/01/26 08:42:49;;;;;;;109.60;37.95;;;;;;;3.27;100.00;102158.81;4933151;29;20056;-72
2022/01/26 08:45:22;;;;;;;97.07;37.53;;;;;;;3.43;100.00;102156.91;4936934;29;20055;-71
2022/01/26 08:47:51;;;;;;;91.45;36.33;;;;;;;3.59;100.00;102155.81;4935278;29;20074;-72
2022/01/26 08:50:19;;;;;;;87.45;34.35;;;;;;;3.73;100.00;102157.59;4937752;29;20051;-71
2022/01/26 08:52:47;;;;;;;90.38;35.50;;;;;;;3.69;100.00;102158.19;4940978;29;20052;-70
2022/01/26 08:55:16;;;;;;;93.18;36.05;;;;;;;3.61;100.00;102159.16;4937810;29;20062;-70
2022/01/26 08:57:44;;;;;;;94.18;36.45;;;;;;;3.60;100.00;102152.06;4937273;29;20390;-71
2022/01/26 09:00:13;;;;;;;97.40;35.97;;;;;;;3.69;100.00;102158.19;4902502;29;20076;-72
2022/01/26 09:02:41;;;;;;;88.63;37.55;;;;;;;3.66;99.96;102159.41;4921459;29;20048;-72
2022/01/26 09:05:10;;;;;;;92.88;35.13;;;;;;;3.63;100.00;102147.09;4923001;29;20058;-71
2022/01/26 09:07:40;;;;;;;102.60;38.67;;;;;;;3.36;100.00;102152.28;4923544;29;20051;-71
2022/01/26 09:10:09;;;;;;;95.75;36.20;;;;;;;3.60;100.00;102157.47;4912546;29;20048;-72
2022/01/26 09:12:41;;;;;;;94.80;35.67;;;;;;;3.61;99.59;102154.59;4918861;29;20402;-72
2022/01/26 09:15:10;;;;;;;97.53;35.42;;;;;;;3.60;100.00;102157.47;4926828;29;20048;-72
2022/01/26 09:17:39;;;;;;;82.22;34.17;;;;;;;3.79;98.30;102155.13;4920273;29;20368;-72
2022/01/26 09:20:09;;;;;;;83.53;35.53;;;;;;;4.10;97.33;102167.50;4908143;29;20055;-71
2022/01/26 09:22:38;;;;;;;90.63;37.67;;;;;;;4.39;95.19;102165.56;4922400;29;20064;-70
2022/01/26 09:25:06;;;;;;;93.28;38.47;;;;;;;4.32;94.10;102170.97;4909387;29;20052;-70
2022/01/26 09:27:36;;;;;;;87.72;36.38;;;;;;;4.46;93.77;102174.59;4929043;29;20398;-70
2022/01/26 09:30:05;;;;;;;96.07;36.20;;;;;;;4.29;94.36;102172.22;4924674;29;20062;-70
2022/01/26 09:32:37;;;;;;;89.00;35.30;;;;;;;4.30;93.88;102173.88;4924439;29;20056;-71
2022/01/26 09:35:07;;;;;;;93.72;35.35;;;;;;;4.39;93.01;102171.00;4918445;28;20051;-72
2022/01/26 09:37:36;;;;;;;89.63;36.28;;;;;;;4.27;93.09;102171.56;4924281;29;20047;-70
2022/01/26 09:40:06;;;;;;;85.88;35.55;;;;;;;4.47;92.93;102165.44;4915306;29;20059;-72
2022/01/26 09:42:36;;;;;;;87.30;35.55;;;;;;;4.70;91.50;102169.72;4932936;29;20054;-71
2022/01/26 09:45:06;;;;;;;86.00;36.33;;;;;;;4.80;91.10;102166.66;4927994;28;20047;-70
2022/01/26 09:47:34;;;;;;;78.70;35.50;;;;;;;4.93;90.11;102160.41;4924430;29;20043;-69
2022/01/26 09:50:22;;;;;;;80.93;36.85;;;;;;;5.22;88.56;102158.44;4925052;29;20062;-70
2022/01/26 09:52:53;;;;;;;97.47;37.70;;;;;;;5.46;87.15;102156.19;4928182;29;20402;-69
2022/01/26 09:55:22;;;;;;;81.82;35.42;;;;;;;5.72;85.47;102163.53;4919566;29;20507;-71
2022/01/26 09:57:57;;;;;;;87.70;37.28;;;;;;;5.21;86.90;102167.63;4914683;29;20751;-71
2022/01/26 10:00:28;;;;;;;79.38;34.63;;;;;;;5.45;85.87;102157.22;4906884;28;20423;-71
2022/01/26 10:02:58;;;;;;;82.28;35.13;;;;;;;5.43;84.36;102160.16;4908126;29;20082;-71
2022/01/26 10:05:42;;;;;;;88.70;37.72;;;;;;;5.58;85.78;102149.09;4908483;29;20063;-71
2022/01/26 10:08:53;;;;;;;83.05;34.00;;;;;;;5.78;82.68;102151.00;4903336;29;20048;-71
2022/01/26 10:19:09;;;;;;;76.22;34.70;;;;;;;5.38;83.41;102143.66;4932504;29;20078;-72
2022/01/26 10:22:04;;;;;;;74.60;35.53;;;;;;;5.40;82.07;102143.44;4935668;29;20062;-71
2022/01/26 10:24:33;;;;;;;75.30;33.63;;;;;;;5.16;84.24;102137.53;4943265;29;20062;-72
2022/01/26 10:27:02;;;;;;;80.43;35.00;;;;;;;5.32;82.50;102145.31;4941299;29;20054;-71
2022/01/26 10:29:33;;;;;;;72.57;33.55;;;;;;;5.58;83.61;102124.66;4944423;29;20043;-71
2022/01/26 10:32:13;;;;;;;86.50;34.58;;;;;;;5.70;79.48;102130.31;4933494;29;20055;-70
2022/01/26 10:34:42;;;;;;;80.30;36.00;;;;;;;5.87;79.80;102132.63;4944388;29;20050;-70
2022/01/26 10:37:10;;;;;;;76.13;34.10;;;;;;;5.54;80.94;102120.69;4944709;28;20044;-70
2022/01/26 10:39:45;;;;;;;78.80;34.85;;;;;;;5.27;82.29;102128.78;4937343;29;20406;-71
2022/01/26 10:42:18;;;;;;;70.70;32.13;;;;;;;5.35;81.97;102120.47;4939453;29;20054;-70
2022/01/26 10:47:27;;;;;;;78.22;35.58;;;;;;;5.54;81.45;102123.41;4934908;29;20047;-70
2022/01/26 10:50:08;;;;;;;76.88;35.40;;;;;;;5.68;79.41;102109.84;4944227;29;20395;-70
2022/01/26 10:52:38;;;;;;;79.30;34.97;;;;;;;6.14;78.22;102113.56;4935664;29;20106;-70
2022/01/26 10:55:09;;;;;;;80.90;34.72;;;;;;;6.16;78.09;102104.16;4928341;29;20058;-70
2022/01/26 10:57:37;;;;;;;76.30;32.20;;;;;;;6.21;78.44;102095.34;4932279;29;20387;-70
2022/01/26 11:00:06;;;;;;;77.03;33.88;;;;;;;6.25;78.32;102099.31;4935476;29;20040;-71
2022/01/26 11:02:35;;;;;;;79.30;33.70;;;;;;;5.91;78.66;102085.78;4940539;28;20050;-70
2022/01/26 11:05:03;;;;;;;76.15;33.45;;;;;;;6.17;78.69;102094.94;4935133;29;20052;-70
2022/01/26 11:07:44;;;;;;;82.13;35.00;;;;;;;6.20;77.79;102095.59;4936300;29;20055;-70
2022/01/26 11:10:12;;;;;;;82.95;34.42;;;;;;;5.88;78.80;102082.66;4934495;29;20036;-70
2022/01/26 11:12:41;;;;;;;80.78;33.70;;;;;;;6.13;79.62;102080.13;4934652;29;20042;-70
2022/01/26 11:15:16;;;;;;;73.53;32.60;;;;;;;6.09;78.36;102080.75;4941188;29;20059;-70
2022/01/26 11:17:46;;;;;;;71.35;31.80;;;;;;;5.70;79.64;102083.28;4935738;29;20055;-69
2022/01/26 11:20:20;;;;;;;83.32;34.97;;;;;;;5.85;79.19;102064.03;4944278;29;20050;-71
2022/01/26 11:22:55;;;;;;;82.07;34.88;;;;;;;5.81;79.27;102069.06;4935969;29;20048;-71
2022/01/26 11:25:28;;;;;;;82.90;33.83;;;;;;;6.26;78.86;102073.00;4937114;29;20048;-71
2022/01/26 11:27:57;;;;;;;81.60;35.53;;;;;;;6.45;76.18;102066.63;4934346;29;20040;-71
2022/01/26 11:30:30;;;;;;;80.30;34.95;;;;;;;6.14;78.70;102056.50;4942600;29;20047;-72
2022/01/26 11:33:04;;;;;;;73.97;34.50;;;;;;;6.21;79.85;102060.00;4948044;29;20054;-72
2022/01/26 11:35:36;;;;;;;82.00;34.87;;;;;;;6.53;77.58;102059.28;4953651;29;20047;-72
2022/01/26 11:38:15;;;;;;;85.65;35.58;;;;;;;6.64;76.86;102053.16;4953563;29;20043;-72
2022/01/26 11:46:33;;;;;;;78.30;34.15;;;;;;;5.43;82.30;102042.56;4949585;29;20475;-71
2022/01/26 11:49:03;;;;;;;79.13;34.60;;;;;;;5.66;82.87;102039.41;4951327;29;20062;-71
2022/01/26 11:51:46;;;;;;;81.72;35.38;;;;;;;5.90;80.35;102045.22;4953509;29;20047;-70
2022/01/26 11:54:20;;;;;;;80.83;35.83;;;;;;;5.85;80.61;102032.28;4945416;29;20051;-71
2022/01/26 11:57:09;;;;;;;84.97;35.10;;;;;;;5.82;81.59;102027.25;4953396;29;20299;-71
2022/01/26 11:59:45;;;;;;;74.60;34.92;;;;;;;5.97;80.97;102018.06;4953409;29;20046;-71
2022/01/26 12:02:48;;;;;;;82.75;36.80;;;;;;;6.28;80.38;102014.63;4961086;28;20055;-71
2022/01/26 12:05:18;;;;;;;81.95;34.03;;;;;;;5.94;79.90;102005.72;4966840;28;20050;-71
2022/01/26 12:07:55;;;;;;;82.57;34.38;;;;;;;6.07;82.47;102013.03;4976426;28;20398;-70
2022/01/26 12:10:32;;;;;;;73.10;33.60;;;;;;;6.13;82.08;102005.91;4976240;28;20047;-71
2022/01/26 12:13:07;;;;;;;74.97;31.95;;;;;;;6.12;82.64;101999.63;4976155;28;20055;-71
2022/01/26 12:35:42;;;;;;;67.22;30.75;;;;;;;6.16;82.67;101967.44;4951727;28;20047;-71
2022/01/26 12:38:30;;;;;;;80.70;32.10;;;;;;;6.06;83.27;101970.56;4968481;28;20039;-72
2022/01/26 12:44:11;;;;;;;73.93;31.25;;;;;;;5.91;83.68;101970.81;4952966;28;20051;-71
2022/01/26 12:46:40;;;;;;;75.13;30.98;;;;;;;5.91;84.27;101965.38;4975709;28;20053;-73
2022/01/26 12:49:15;;;;;;;72.82;29.85;;;;;;;6.05;83.04;101968.91;4975684;28;20054;-71
2022/01/26 12:51:45;;;;;;;74.28;29.75;;;;;;;5.97;84.33;101966.41;4975284;28;20047;-71
2022/01/26 12:54:14;;;;;;;80.50;32.85;;;;;;;5.82;83.38;101961.25;4967526;28;20054;-71
2022/01/26 12:56:42;;;;;;;72.28;32.03;;;;;;;5.72;85.54;101962.50;4975367;28;20055;-71
2022/01/26 12:59:16;;;;;;;69.45;28.60;;;;;;;5.73;85.89;101960.63;4975764;28;20051;-71
2022/01/26 13:01:46;;;;;;;76.40;31.98;;;;;;;5.62;86.06;101954.81;4971927;28;20058;-71
2022/01/26 13:04:18;;;;;;;77.75;31.77;;;;;;;5.68;85.54;101961.28;4965911;28;20055;-71
2022/01/26 13:06:51;;;;;;;78.47;31.80;;;;;;;5.77;84.82;101967.31;4952040;28;20055;-72
2022/01/26 13:09:21;;;;;;;72.90;32.17;;;;;;;5.35;87.00;101954.88;4972011;28;20055;-72
2022/01/26 13:11:50;;;;;;;74.93;30.17;;;;;;;5.48;87.06;101961.31;4974681;28;20051;-73
2022/01/26 13:14:28;;;;;;;78.72;33.17;;;;;;;5.30;87.44;101954.66;4974454;28;20051;-72
2022/01/26 13:20:10;;;;;;;84.05;33.53;;;;;;;5.28;88.85;101956.72;4969942;28;20050;-71
2022/01/26 13:35:42;;;;;;;75.03;30.27;;;;;;;5.40;88.76;101945.25;4965783;28;20394;-71
2022/01/26 13:38:26;;;;;;;83.88;32.50;;;;;;;5.38;87.36;101957.16;4959893;28;20505;-70
2022/01/26 13:59:54;;;;;;;91.88;34.63;;;;;;;4.99;90.39;101964.28;4941881;28;20058;-71
2022/01/26 14:02:24;;;;;;;92.78;37.28;;;;;;;4.79;91.07;101965.06;4966777;28;20054;-71
2022/01/26 14:04:56;;;;;;;90.57;36.00;;;;;;;4.67;91.95;101966.72;4971969;28;20061;-69
2022/01/26 14:07:24;;;;;;;89.28;35.00;;;;;;;4.61;92.88;101967.56;4949324;28;20044;-72
2022/01/26 14:09:52;;;;;;;97.43;37.20;;;;;;;4.66;91.94;101968.63;4974490;28;20042;-71